Tenkaku — JM6537 — position and weather

sailwx.info

Track history (hours):
 
Tides and Currents Weather Stations Pressure Air Temp Water Temp Dewpoint Dewpoint Depression Visibility Wind Speed Wind Dir Waves Ship Positions

Tenkaku

Last reported at 2018-Feb-25 01:27 UTC. Time now 2018-Feb-25 01:56 UTC.
Position N 35°34' E 139°51'.

Length 80 m; draft 5 m.

Type: Cargo ship. MMSI: 431600647.

Date/timePositionNaut miles runAvg speedWind from/ knotsBaromVisibWave heightAir tempDewpointWater temp
2018-Feb-25 01:27N 35°34' E 139°51'0 0.0
2018-Feb-25 01:00N 35°34' E 139°51'0 0.0
2018-Feb-25 00:27N 35°34' E 139°51'0 0.0
2018-Feb-25 00:00N 35°34' E 139°51'0 0.0
2018-Feb-24 23:30N 35°34' E 139°51'0 0.0
2018-Feb-24 23:00N 35°34' E 139°51'0 0.0
2018-Feb-24 22:21N 35°34' E 139°51'0 0.0
2018-Feb-24 21:33N 35°34' E 139°51'0 0.0
2018-Feb-24 21:24N 35°34' E 139°51'0 0.0
2018-Feb-24 20:54N 35°34' E 139°51'0 0.0
2018-Feb-24 20:21N 35°34' E 139°51'0 0.0
2018-Feb-24 20:00N 35°34' E 139°51'0 0.0
2018-Feb-24 19:30N 35°34' E 139°51'0 0.0
2018-Feb-24 18:57N 35°34' E 139°51'0 0.0
2018-Feb-24 18:30N 35°34' E 139°51'0 0.0
2018-Feb-24 17:51N 35°34' E 139°51'0 0.0
2018-Feb-24 17:27N 35°34' E 139°51'0 0.0
2018-Feb-24 17:00N 35°34' E 139°51'0 0.0
2018-Feb-24 16:30N 35°34' E 139°51'0 0.0
2018-Feb-24 16:00N 35°34' E 139°51'0 0.0
2018-Feb-24 15:24N 35°34' E 139°51'0 1.2
2018-Feb-24 15:00N 35°33' E 139°51'5 9.8
2018-Feb-24 14:31N 35°28' E 139°51'510.7
2018-Feb-24 14:01N 35°24' E 139°47'510.7
2018-Feb-24 13:31N 35°19' E 139°44'510.1
2018-Feb-24 13:01N 35°15' E 139°47'510.7
2018-Feb-24 12:30N 35°09' E 139°46'510.4
2018-Feb-24 12:00N 35°04' E 139°45'810.3
2018-Feb-24 11:11N 34°56' E 139°45'210.8
2018-Feb-24 10:59N 34°54' E 139°46'  
2018-Feb-22 06:26N 41°26' E 141°32'1212.5
2018-Feb-22 05:28N 41°38' E 141°33'4 0.1
2018-Feb-21 05:07N 41°42' E 141°33'3 9.9
2018-Feb-21 04:48N 41°39' E 141°33'11 9.0
2018-Feb-21 03:37N 41°28' E 141°33'2 8.9
2018-Feb-21 03:24N 41°26' E 141°33'40110.3
2018-Feb-19 12:17N 34°53' E 139°48'311.9
2018-Feb-19 11:59N 34°56' E 139°45'510.7
2018-Feb-19 11:30N 35°01' E 139°44'611.4
2018-Feb-19 11:01N 35°07' E 139°45'611.6
2018-Feb-19 10:30N 35°12' E 139°46'510.9
2018-Feb-19 10:00N 35°18' E 139°44'611.1
2018-Feb-19 09:30N 35°23' E 139°42'5 9.1
2018-Feb-19 09:00N 35°25' E 139°47'4 8.7
2018-Feb-19 08:31N 35°22' E 139°51'0 0.1
2018-Feb-19 08:00N 35°22' E 139°51'0 0.0
2018-Feb-19 07:30N 35°22' E 139°51'0 0.0
2018-Feb-19 07:00N 35°22' E 139°51'0 0.0
2018-Feb-19 06:30N 35°22' E 139°51'0 0.0
2018-Feb-19 06:01N 35°22' E 139°51'0 0.1
2018-Feb-19 05:30N 35°22' E 139°51'4 8.0
2018-Feb-19 05:00N 35°26' E 139°50'611.8
2018-Feb-19 04:30N 35°32' E 139°51'5 6.9
2018-Feb-19 03:48N 35°35' E 139°46'0 0.0
2018-Feb-19 02:11N 35°35' E 139°46'0 0.0
2018-Feb-19 01:57N 35°35' E 139°46'0 0.0
2018-Feb-19 01:29N 35°35' E 139°46'0 0.0
2018-Feb-18 23:44N 35°35' E 139°46'0 0.0
2018-Feb-18 23:18N 35°35' E 139°46'0 0.0
2018-Feb-18 22:53N 35°35' E 139°46'0 0.0
2018-Feb-18 22:26N 35°35' E 139°46'0 0.0
2018-Feb-18 21:59N 35°35' E 139°46'1 2.8
2018-Feb-18 21:29N 35°34' E 139°48'3 1.6
2018-Feb-18 19:22N 35°34' E 139°52'0 0.0
2018-Feb-18 18:55N 35°34' E 139°52'0 0.0
2018-Feb-18 18:19N 35°34' E 139°52'0 0.0
2018-Feb-18 17:58N 35°34' E 139°52'0 0.0
2018-Feb-18 17:16N 35°34' E 139°52'0 0.2
2018-Feb-18 16:58N 35°34' E 139°52'0 0.0
2018-Feb-18 16:28N 35°34' E 139°52'0 0.0
2018-Feb-18 15:58N 35°34' E 139°52'0 0.0
2018-Feb-18 15:19N 35°34' E 139°52'0 0.0
2018-Feb-18 14:58N 35°34' E 139°52'0 0.0
2018-Feb-18 14:28N 35°34' E 139°52'0 0.0
2018-Feb-18 13:58N 35°34' E 139°52'0 0.1
2018-Feb-18 13:28N 35°34' E 139°52'0 0.0
2018-Feb-18 12:58N 35°34' E 139°52'0 0.0
2018-Feb-18 12:25N 35°34' E 139°52'0 0.0
2018-Feb-18 11:58N 35°34' E 139°52'0 0.0
2018-Feb-18 11:28N 35°34' E 139°52'0 0.0
2018-Feb-18 10:58N 35°34' E 139°52'0 0.0
2018-Feb-18 10:28N 35°34' E 139°52'0 0.0
2018-Feb-18 09:55N 35°34' E 139°52'0 0.0
2018-Feb-18 09:28N 35°34' E 139°52'1 2.1
2018-Feb-18 09:01N 35°33' E 139°52'510.3
2018-Feb-18 08:31N 35°28' E 139°50'611.3
2018-Feb-18 08:00N 35°23' E 139°46'611.2
2018-Feb-18 07:31N 35°18' E 139°45'611.5
2018-Feb-18 07:00N 35°12' E 139°47'611.7
2018-Feb-18 06:30N 35°06' E 139°46'611.7
2018-Feb-18 06:00N 35°01' E 139°44'610.8
2018-Feb-18 05:28N 34°55' E 139°46'14 9.8
2018-Feb-18 04:03N 34°56' E 140°03'  
Track history (hours):
 
Tides and Currents Weather Stations Pressure Air Temp Water Temp Dewpoint Dewpoint Depression Visibility Wind Speed Wind Dir Waves Ship Positions

Tenkaku

Last reported at 2018-Feb-25 01:27 UTC. Time now 2018-Feb-25 01:56 UTC.
Position N 35°34' E 139°51'.

Length 80 m; draft 5 m.

Type: Cargo ship. MMSI: 431600647.

Date/timePositionNaut miles runAvg speedWind from/ knotsBaromVisibWave heightAir tempDewpointWater temp
2018-Feb-25 01:27N 35°34' E 139°51'0 0.0
2018-Feb-25 01:00N 35°34' E 139°51'0 0.0
2018-Feb-25 00:27N 35°34' E 139°51'0 0.0
2018-Feb-25 00:00N 35°34' E 139°51'0 0.0
2018-Feb-24 23:30N 35°34' E 139°51'0 0.0
2018-Feb-24 23:00N 35°34' E 139°51'0 0.0
2018-Feb-24 22:21N 35°34' E 139°51'0 0.0
2018-Feb-24 21:33N 35°34' E 139°51'0 0.0
2018-Feb-24 21:24N 35°34' E 139°51'0 0.0
2018-Feb-24 20:54N 35°34' E 139°51'0 0.0
2018-Feb-24 20:21N 35°34' E 139°51'0 0.0
2018-Feb-24 20:00N 35°34' E 139°51'0 0.0
2018-Feb-24 19:30N 35°34' E 139°51'0 0.0
2018-Feb-24 18:57N 35°34' E 139°51'0 0.0
2018-Feb-24 18:30N 35°34' E 139°51'0 0.0
2018-Feb-24 17:51N 35°34' E 139°51'0 0.0
2018-Feb-24 17:27N 35°34' E 139°51'0 0.0
2018-Feb-24 17:00N 35°34' E 139°51'0 0.0
2018-Feb-24 16:30N 35°34' E 139°51'0 0.0
2018-Feb-24 16:00N 35°34' E 139°51'0 0.0
2018-Feb-24 15:24N 35°34' E 139°51'0 1.2
2018-Feb-24 15:00N 35°33' E 139°51'5 9.8
2018-Feb-24 14:31N 35°28' E 139°51'510.7
2018-Feb-24 14:01N 35°24' E 139°47'510.7
2018-Feb-24 13:31N 35°19' E 139°44'510.1
2018-Feb-24 13:01N 35°15' E 139°47'510.7
2018-Feb-24 12:30N 35°09' E 139°46'510.4
2018-Feb-24 12:00N 35°04' E 139°45'810.3
2018-Feb-24 11:11N 34°56' E 139°45'210.8
2018-Feb-24 10:59N 34°54' E 139°46'  
2018-Feb-22 06:26N 41°26' E 141°32'1212.5
2018-Feb-22 05:28N 41°38' E 141°33'4 0.1
2018-Feb-21 05:07N 41°42' E 141°33'3 9.9
2018-Feb-21 04:48N 41°39' E 141°33'11 9.0
2018-Feb-21 03:37N 41°28' E 141°33'2 8.9
2018-Feb-21 03:24N 41°26' E 141°33'40110.3
2018-Feb-19 12:17N 34°53' E 139°48'311.9
2018-Feb-19 11:59N 34°56' E 139°45'510.7
2018-Feb-19 11:30N 35°01' E 139°44'611.4
2018-Feb-19 11:01N 35°07' E 139°45'611.6
2018-Feb-19 10:30N 35°12' E 139°46'510.9
2018-Feb-19 10:00N 35°18' E 139°44'611.1
2018-Feb-19 09:30N 35°23' E 139°42'5 9.1
2018-Feb-19 09:00N 35°25' E 139°47'4 8.7
2018-Feb-19 08:31N 35°22' E 139°51'0 0.1
2018-Feb-19 08:00N 35°22' E 139°51'0 0.0
2018-Feb-19 07:30N 35°22' E 139°51'0 0.0
2018-Feb-19 07:00N 35°22' E 139°51'0 0.0
2018-Feb-19 06:30N 35°22' E 139°51'0 0.0
2018-Feb-19 06:01N 35°22' E 139°51'0 0.1
2018-Feb-19 05:30N 35°22' E 139°51'4 8.0
2018-Feb-19 05:00N 35°26' E 139°50'611.8
2018-Feb-19 04:30N 35°32' E 139°51'5 6.9
2018-Feb-19 03:48N 35°35' E 139°46'0 0.0
2018-Feb-19 02:11N 35°35' E 139°46'0 0.0
2018-Feb-19 01:57N 35°35' E 139°46'0 0.0
2018-Feb-19 01:29N 35°35' E 139°46'0 0.0
2018-Feb-18 23:44N 35°35' E 139°46'0 0.0
2018-Feb-18 23:18N 35°35' E 139°46'0 0.0
2018-Feb-18 22:53N 35°35' E 139°46'0 0.0
2018-Feb-18 22:26N 35°35' E 139°46'0 0.0
2018-Feb-18 21:59N 35°35' E 139°46'1 2.8
2018-Feb-18 21:29N 35°34' E 139°48'3 1.6
2018-Feb-18 19:22N 35°34' E 139°52'0 0.0
2018-Feb-18 18:55N 35°34' E 139°52'0 0.0
2018-Feb-18 18:19N 35°34' E 139°52'0 0.0
2018-Feb-18 17:58N 35°34' E 139°52'0 0.0
2018-Feb-18 17:16N 35°34' E 139°52'0 0.2
2018-Feb-18 16:58N 35°34' E 139°52'0 0.0
2018-Feb-18 16:28N 35°34' E 139°52'0 0.0
2018-Feb-18 15:58N 35°34' E 139°52'0 0.0
2018-Feb-18 15:19N 35°34' E 139°52'0 0.0
2018-Feb-18 14:58N 35°34' E 139°52'0 0.0
2018-Feb-18 14:28N 35°34' E 139°52'0 0.0
2018-Feb-18 13:58N 35°34' E 139°52'0 0.1
2018-Feb-18 13:28N 35°34' E 139°52'0 0.0
2018-Feb-18 12:58N 35°34' E 139°52'0 0.0
2018-Feb-18 12:25N 35°34' E 139°52'0 0.0
2018-Feb-18 11:58N 35°34' E 139°52'0 0.0
2018-Feb-18 11:28N 35°34' E 139°52'0 0.0
2018-Feb-18 10:58N 35°34' E 139°52'0 0.0
2018-Feb-18 10:28N 35°34' E 139°52'0 0.0
2018-Feb-18 09:55N 35°34' E 139°52'0 0.0
2018-Feb-18 09:28N 35°34' E 139°52'1 2.1
2018-Feb-18 09:01N 35°33' E 139°52'510.3
2018-Feb-18 08:31N 35°28' E 139°50'611.3
2018-Feb-18 08:00N 35°23' E 139°46'611.2
2018-Feb-18 07:31N 35°18' E 139°45'611.5
2018-Feb-18 07:00N 35°12' E 139°47'611.7
2018-Feb-18 06:30N 35°06' E 139°46'611.7
2018-Feb-18 06:00N 35°01' E 139°44'610.8
2018-Feb-18 05:28N 34°55' E 139°46'14 9.8
2018-Feb-18 04:03N 34°56' E 140°03'  

Dump ship's entire track history